createdAt,value
2023-01-05T00:02:24.427Z,60.92
2023-01-05T00:07:28.473Z,60.98
2023-01-05T00:12:49.318Z,61.17
2023-01-05T00:18:11.867Z,60.93
2023-01-05T00:23:15.259Z,60.84
2023-01-05T00:28:18.853Z,60.66
2023-01-05T00:33:23.683Z,60.55
2023-01-05T00:38:26.939Z,60.57
2023-01-05T00:43:30.347Z,60.79
2023-01-05T00:48:35.138Z,60.78
2023-01-05T00:53:38.123Z,60.54
2023-01-05T00:58:41.791Z,60.89
2023-01-05T01:03:46.692Z,60.91
2023-01-05T01:08:50.400Z,60.55
2023-01-05T01:13:53.828Z,60.64
2023-01-05T01:19:02.943Z,60.54
2023-01-05T01:24:08.912Z,60.38
2023-01-05T01:29:12.702Z,60.72
2023-01-05T01:34:17.636Z,60.62
2023-01-05T01:39:21.294Z,60.17
2023-01-05T01:44:53.790Z,60.53
2023-01-05T01:50:00.310Z,61.07
2023-01-05T01:55:06.755Z,60.72
2023-01-05T02:00:15.080Z,60.88
2023-01-05T02:05:22.642Z,61.00
2023-01-05T02:10:37.438Z,60.64
2023-01-05T02:15:51.432Z,61.20
2023-01-05T02:21:15.003Z,61.21
2023-01-05T02:27:10.987Z,61.08
2023-01-05T02:32:22.247Z,60.84
2023-01-05T02:37:30.777Z,61.07
2023-01-05T02:42:36.932Z,61.14
2023-01-05T02:47:43.857Z,60.75
2023-01-05T02:52:55.769Z,60.84
2023-01-05T02:58:04.301Z,60.62
2023-01-05T03:03:14.842Z,60.71
2023-01-05T03:08:30.612Z,60.84
2023-01-05T03:13:44.775Z,60.49
2023-01-05T03:19:10.454Z,60.58
2023-01-05T03:24:31.775Z,60.38
2023-01-05T03:29:52.580Z,60.91
2023-01-05T03:35:20.981Z,60.59
2023-01-05T03:40:29.703Z,60.92
2023-01-05T03:45:40.753Z,60.32
2023-01-05T03:50:45.746Z,61.22
2023-01-05T03:55:49.208Z,60.63
2023-01-05T04:00:52.773Z,60.74
2023-01-05T04:05:57.620Z,60.88
2023-01-05T04:11:12.174Z,60.72
2023-01-05T04:16:15.694Z,60.56
2023-01-05T04:21:20.646Z,60.87
2023-01-05T04:26:24.128Z,60.87
2023-01-05T04:31:27.805Z,60.68
2023-01-05T04:36:32.809Z,60.78
2023-01-05T04:41:36.406Z,60.42
2023-01-05T04:46:40.137Z,60.72
2023-01-05T04:51:45.181Z,60.65
2023-01-05T04:56:48.822Z,60.43
2023-01-05T05:01:52.477Z,60.50
2023-01-05T05:06:57.650Z,60.57
2023-01-05T05:12:01.287Z,60.62
2023-01-05T05:17:04.988Z,60.71
2023-01-05T05:22:10.261Z,60.87
2023-01-05T05:27:13.986Z,60.78
2023-01-05T05:32:17.591Z,60.72
2023-01-05T05:37:22.617Z,61.15
2023-01-05T05:42:26.027Z,60.63
2023-01-05T05:47:29.737Z,60.47
2023-01-05T05:52:34.511Z,60.36
2023-01-05T05:57:37.792Z,60.19
2023-01-05T06:02:41.367Z,60.01
2023-01-05T06:07:46.480Z,60.08
2023-01-05T06:12:49.838Z,59.66
2023-01-05T06:17:53.572Z,59.81
2023-01-05T06:22:58.350Z,59.63
2023-01-05T06:28:01.786Z,59.66
2023-01-05T06:33:05.248Z,59.75
2023-01-05T06:38:11.466Z,59.56
2023-01-05T06:43:14.841Z,59.66
2023-01-05T06:48:18.242Z,59.85
2023-01-05T06:53:22.965Z,59.65
2023-01-05T06:58:26.252Z,59.85
2023-01-05T07:03:29.767Z,59.39
2023-01-05T07:08:34.837Z,59.65
2023-01-05T07:13:38.291Z,59.03
2023-01-05T07:18:41.932Z,59.03
2023-01-05T07:23:46.953Z,58.79
2023-01-05T07:28:50.479Z,58.48
2023-01-05T07:33:53.967Z,57.97
2023-01-05T07:38:59.752Z,58.15
2023-01-05T07:44:03.314Z,57.76
2023-01-05T07:49:07.029Z,57.45
2023-01-05T07:54:11.934Z,57.09
2023-01-05T07:59:15.712Z,57.78
2023-01-05T08:04:19.187Z,57.36
2023-01-05T08:09:41.574Z,56.92
2023-01-05T08:14:45.034Z,57.07
2023-01-05T08:19:48.627Z,56.18
2023-01-05T08:24:53.544Z,56.49
2023-01-05T08:29:57.235Z,55.98
2023-01-05T08:35:00.534Z,55.94
2023-01-05T08:40:07.186Z,55.59
2023-01-05T08:45:11.582Z,55.60
2023-01-05T08:50:15.029Z,56.04
2023-01-05T08:55:20.814Z,55.20
2023-01-05T09:00:25.249Z,55.70
2023-01-05T09:05:28.702Z,55.22
2023-01-05T09:10:33.815Z,54.97
2023-01-05T09:15:37.297Z,54.56
2023-01-05T09:20:40.915Z,54.02
2023-01-05T09:25:45.649Z,53.50
2023-01-05T09:30:51.016Z,53.53
2023-01-05T09:35:56.358Z,53.19
2023-01-05T09:41:06.601Z,53.48
2023-01-05T09:46:14.933Z,52.95
2023-01-05T09:51:18.428Z,53.14
2023-01-05T10:01:56.907Z,52.97
2023-01-05T10:07:04.901Z,52.64
2023-01-05T10:12:36.204Z,52.33
2023-01-05T10:17:43.890Z,51.94
2023-01-05T10:23:02.632Z,51.77
2023-01-05T10:28:22.516Z,51.96
2023-01-05T10:33:41.705Z,52.20
2023-01-05T10:38:57.317Z,51.86
2023-01-05T10:44:23.059Z,51.32
2023-01-05T10:49:29.188Z,51.23
2023-01-05T10:54:40.148Z,51.35
2023-01-05T10:59:58.107Z,51.93
2023-01-05T11:05:06.360Z,51.91
2023-01-05T11:10:22.667Z,52.76
2023-01-05T11:15:27.718Z,53.07
2023-01-05T11:20:31.334Z,53.29
2023-01-05T11:25:35.174Z,53.55
2023-01-05T11:30:43.393Z,53.86
2023-01-05T11:35:47.108Z,54.34
2023-01-05T11:40:50.773Z,54.84
2023-01-05T11:45:58.251Z,54.74
2023-01-05T11:51:02.990Z,55.09
2023-01-05T11:56:15.692Z,54.78
2023-01-05T12:01:56.009Z,55.06
2023-01-05T12:07:14.851Z,54.50
2023-01-05T12:12:37.819Z,53.53
2023-01-05T12:17:52.235Z,53.58
2023-01-05T12:23:22.337Z,53.89
2023-01-05T12:28:42.541Z,53.84
2023-01-05T12:34:13.402Z,54.65
2023-01-05T12:39:48.318Z,54.89
2023-01-05T12:45:09.877Z,55.11
2023-01-05T12:50:27.960Z,55.72
2023-01-05T12:55:39.343Z,56.16
2023-01-05T13:00:46.662Z,56.50
2023-01-05T13:05:59.479Z,57.04
2023-01-05T13:11:09.106Z,57.11
2023-01-05T13:16:16.789Z,57.07
2023-01-05T13:21:23.077Z,57.51
2023-01-05T13:26:26.751Z,57.58
2023-01-05T13:31:54.497Z,57.14
2023-01-05T13:37:21.095Z,57.38
2023-01-05T13:42:52.946Z,57.50
2023-01-05T13:48:34.066Z,57.22
2023-01-05T13:53:52.567Z,57.63
2023-01-05T13:59:02.764Z,57.60
2023-01-05T14:04:08.160Z,57.10
2023-01-05T14:09:19.060Z,57.69
2023-01-05T14:19:53.913Z,56.97
2023-01-05T14:24:58.870Z,57.85
2023-01-05T14:30:04.501Z,56.97
2023-01-05T14:35:20.399Z,57.50
2023-01-05T14:40:51.595Z,57.49
2023-01-05T14:46:05.020Z,57.36
2023-01-05T14:51:13.531Z,57.21
2023-01-05T14:56:22.690Z,56.75
2023-01-05T15:01:30.331Z,57.01
2023-01-05T15:06:47.825Z,57.55
2023-01-05T15:12:30.138Z,58.24
2023-01-05T15:18:11.538Z,58.37
2023-01-05T15:23:36.590Z,58.65
2023-01-05T15:29:05.997Z,59.09
2023-01-05T15:34:20.365Z,58.41
2023-01-05T15:39:26.391Z,58.82
2023-01-05T15:44:34.355Z,58.56
2023-01-05T15:49:41.361Z,59.20
2023-01-05T15:54:44.869Z,59.09
2023-01-05T15:59:50.671Z,59.07
2023-01-05T16:05:15.563Z,60.01
2023-01-05T16:10:22.876Z,59.70
2023-01-05T16:15:27.431Z,60.18
2023-01-05T16:20:33.085Z,59.59
2023-01-05T16:25:41.067Z,59.51
2023-01-05T16:30:46.317Z,60.20
2023-01-05T16:35:53.055Z,60.72
2023-01-05T16:41:15.097Z,60.60
2023-01-05T16:46:41.027Z,60.72
2023-01-05T16:51:46.188Z,60.22
2023-01-05T16:56:57.989Z,60.35
2023-01-05T17:02:02.171Z,60.42
2023-01-05T17:07:07.561Z,60.00
2023-01-05T17:12:12.187Z,60.16
2023-01-05T17:17:16.291Z,60.46
2023-01-05T17:22:21.225Z,59.31
2023-01-05T17:27:24.768Z,60.55
2023-01-05T17:32:28.174Z,59.61
2023-01-05T17:37:33.286Z,59.73
2023-01-05T17:42:45.664Z,59.69
2023-01-05T17:47:50.278Z,59.92
2023-01-05T17:52:55.492Z,60.13
2023-01-05T17:57:59.894Z,59.45
2023-01-05T18:03:03.263Z,59.28
2023-01-05T18:08:08.367Z,58.48
2023-01-05T18:13:12.492Z,58.87
2023-01-05T18:18:16.607Z,58.68
2023-01-05T18:23:24.472Z,59.23
2023-01-05T18:28:29.797Z,58.80
2023-01-05T18:33:33.881Z,58.56
2023-01-05T18:38:39.286Z,59.03
2023-01-05T18:43:42.945Z,58.93
2023-01-05T18:48:50.421Z,59.35
2023-01-05T18:53:55.194Z,58.12
2023-01-05T18:58:59.025Z,59.12
2023-01-05T19:04:02.217Z,58.57
2023-01-05T19:09:10.236Z,57.93
2023-01-05T19:14:14.983Z,58.39
2023-01-05T19:19:20.438Z,57.56
2023-01-05T19:24:27.057Z,58.21
2023-01-05T19:29:30.669Z,58.29
2023-01-05T19:34:34.115Z,58.18
2023-01-05T19:39:39.121Z,57.92
2023-01-05T19:44:42.654Z,57.05
2023-01-05T19:49:46.210Z,57.20
2023-01-05T19:54:51.052Z,57.54
2023-01-05T19:59:54.857Z,57.65
2023-01-05T20:04:58.333Z,56.85
2023-01-05T20:10:03.332Z,56.58
2023-01-05T20:15:07.485Z,56.70
2023-01-05T20:20:12.982Z,56.95
2023-01-05T20:25:17.880Z,57.20
2023-01-05T20:30:21.597Z,56.91
2023-01-05T20:35:25.136Z,57.10
2023-01-05T20:40:30.257Z,57.21
2023-01-05T20:45:33.775Z,56.89
2023-01-05T20:50:37.249Z,56.79
2023-01-05T20:55:42.273Z,57.40
2023-01-05T21:01:09.542Z,56.54
2023-01-05T21:06:11.806Z,56.88
2023-01-05T21:11:18.438Z,56.97
2023-01-05T21:16:26.279Z,57.42
2023-01-05T21:21:30.911Z,57.05
2023-01-05T21:26:36.038Z,57.10
2023-01-05T21:31:39.747Z,57.17
2023-01-05T21:36:45.569Z,56.61
2023-01-05T21:42:09.994Z,56.79
2023-01-05T21:47:14.294Z,56.65
2023-01-05T21:52:34.857Z,56.91
2023-01-05T21:57:39.945Z,57.40
2023-01-05T22:02:43.321Z,57.10
2023-01-05T22:07:46.923Z,57.09
2023-01-05T22:12:51.629Z,56.62
2023-01-05T22:17:55.389Z,56.81
2023-01-05T22:22:58.697Z,56.62
2023-01-05T22:28:03.655Z,57.15
2023-01-05T22:33:07.086Z,56.55
2023-01-05T22:38:10.357Z,56.44
2023-01-05T22:43:15.040Z,57.20
2023-01-05T22:48:19.615Z,56.34
2023-01-05T22:53:22.926Z,56.69
2023-01-05T22:58:27.763Z,56.92
2023-01-05T23:03:31.281Z,56.40
2023-01-05T23:08:35.751Z,57.04
2023-01-05T23:13:41.363Z,56.70
2023-01-05T23:18:45.267Z,56.51
2023-01-05T23:23:49.388Z,56.49
2023-01-05T23:28:55.269Z,56.28
2023-01-05T23:33:59.077Z,56.56
2023-01-05T23:39:02.734Z,56.51
2023-01-05T23:44:08.299Z,56.65
2023-01-05T23:49:11.555Z,56.44
2023-01-05T23:54:14.778Z,56.06
2023-01-05T23:59:19.867Z,56.13
